Time;durP1;ratioP1;P1;durP2;ratioP2;P2;SDS_P1;SDS_P2;PMS_P1;PMS_P2;Temp;Humidity;BMP_temperature;BMP_pressure;BME280_temperature;BME280_humidity;BME280_pressure;Samples;Min_cycle;Max_cycle;Signal;HPM_P1;HPM_P2
2022/12/16 00:01:15;;;;;;;34.33;23.55;;;0.20;99.90;;;;;;5072120;28;20036;-60
2022/12/16 00:03:45;;;;;;;40.70;25.50;;;0.20;99.90;;;;;;5071237;28;20162;-62
2022/12/16 00:06:11;;;;;;;41.50;25.40;;;0.10;99.90;;;;;;5071132;28;20044;-63
2022/12/16 00:08:38;;;;;;;43.60;25.35;;;0.10;99.90;;;;;;5053600;28;20137;-62
2022/12/16 00:11:05;;;;;;;37.80;24.05;;;0.20;99.90;;;;;;5071604;28;20037;-60
2022/12/16 00:13:32;;;;;;;42.45;24.75;;;0.20;99.90;;;;;;5070184;28;20045;-62
2022/12/16 00:15:58;;;;;;;39.85;25.55;;;0.20;99.90;;;;;;5071073;28;20068;-62
2022/12/16 00:18:24;;;;;;;42.15;25.00;;;0.40;99.90;;;;;;5071744;28;20123;-62
2022/12/16 00:20:54;;;;;;;39.38;24.70;;;0.40;99.90;;;;;;5071857;28;20442;-60
2022/12/16 00:23:20;;;;;;;39.33;24.45;;;0.40;99.90;;;;;;5071257;28;20127;-60
2022/12/16 00:25:47;;;;;;;41.05;25.20;;;0.40;99.90;;;;;;5053355;28;20032;-57
2022/12/16 00:28:14;;;;;;;39.35;24.38;;;0.50;99.90;;;;;;5071138;28;20056;-58
2022/12/16 00:30:43;;;;;;;42.25;24.73;;;0.50;99.90;;;;;;5071653;28;20044;-57
2022/12/16 00:33:13;;;;;;;35.50;22.25;;;0.50;99.90;;;;;;5073252;28;20181;-56
2022/12/16 00:35:38;;;;;;;36.60;23.42;;;0.60;99.90;;;;;;5075504;28;20044;-60
2022/12/16 00:38:04;;;;;;;40.30;23.35;;;0.60;99.90;;;;;;5075613;28;20041;-60
2022/12/16 00:40:29;;;;;;;37.20;23.08;;;0.60;99.90;;;;;;5075619;28;20147;-63
2022/12/16 00:42:55;;;;;;;36.65;23.20;;;0.60;99.90;;;;;;5075079;28;20044;-58
2022/12/16 00:45:20;;;;;;;35.25;21.95;;;0.70;99.90;;;;;;5075174;28;20371;-61
2022/12/16 00:47:48;;;;;;;38.15;23.77;;;0.70;99.90;;;;;;5056927;28;20429;-56
2022/12/16 00:50:14;;;;;;;32.25;21.92;;;0.60;99.90;;;;;;5075162;28;20048;-59
2022/12/16 00:52:39;;;;;;;37.42;24.40;;;0.70;99.90;;;;;;5074800;28;20029;-59
2022/12/16 00:55:06;;;;;;;34.75;23.05;;;0.50;99.90;;;;;;5056419;28;20094;-58
2022/12/16 00:57:32;;;;;;;36.45;24.38;;;0.50;99.90;;;;;;5074712;28;20454;-62
2022/12/16 00:59:58;;;;;;;37.78;24.95;;;0.50;99.90;;;;;;5057282;28;20039;-59
2022/12/16 01:02:23;;;;;;;41.10;24.85;;;0.50;99.90;;;;;;5075003;28;20036;-59
2022/12/16 01:04:49;;;;;;;38.08;23.60;;;0.40;99.90;;;;;;5074333;28;20390;-59
2022/12/16 01:07:15;;;;;;;37.17;24.80;;;0.50;99.90;;;;;;5074312;28;20035;-59
2022/12/16 01:09:41;;;;;;;36.60;23.05;;;0.40;99.90;;;;;;5074808;28;20062;-58
2022/12/16 01:12:07;;;;;;;37.05;23.17;;;0.30;99.90;;;;;;5057196;28;20048;-59
2022/12/16 01:14:32;;;;;;;37.65;24.35;;;0.30;99.90;;;;;;5072761;28;20039;-62
2022/12/16 01:16:58;;;;;;;33.72;22.48;;;0.40;99.90;;;;;;5073550;28;20094;-59
2022/12/16 01:19:24;;;;;;;36.35;23.92;;;0.40;99.90;;;;;;5074324;28;20036;-62
2022/12/16 01:21:49;;;;;;;39.65;22.98;;;0.30;99.90;;;;;;5074989;28;20032;-60
2022/12/16 01:24:15;;;;;;;38.60;26.48;;;0.40;99.90;;;;;;5073971;28;20409;-61
2022/12/16 01:26:40;;;;;;;38.17;23.73;;;0.40;99.90;;;;;;5073923;28;20419;-58
2022/12/16 01:29:06;;;;;;;38.38;24.77;;;0.40;99.90;;;;;;5073419;28;20044;-59
2022/12/16 01:31:32;;;;;;;38.22;22.70;;;0.30;99.90;;;;;;5072877;28;20040;-60
2022/12/16 01:33:58;;;;;;;37.78;23.98;;;0.40;99.90;;;;;;5055449;28;20442;-58
2022/12/16 01:36:23;;;;;;;36.95;23.95;;;0.40;99.90;;;;;;5022019;28;20128;-59
2022/12/16 01:38:49;;;;;;;39.85;23.67;;;0.50;99.90;;;;;;5073408;28;20052;-56
2022/12/16 01:41:16;;;;;;;38.13;23.15;;;0.40;99.90;;;;;;5073317;28;20094;-59
2022/12/16 01:43:45;;;;;;;35.58;23.38;;;0.50;99.90;;;;;;5072307;28;20421;-59
2022/12/16 01:46:13;;;;;;;40.95;24.55;;;0.50;99.90;;;;;;5072693;28;20059;-62
2022/12/16 01:49:02;;;;;;;37.88;23.42;;;0.60;99.90;;;;;;5073146;28;20111;-59
2022/12/16 01:51:41;;;;;;;35.42;22.90;;;0.60;99.90;;;;;;5073778;28;20055;-59
2022/12/16 01:54:21;;;;;;;38.03;22.98;;;0.60;99.90;;;;;;5055230;28;20480;-60
2022/12/16 01:56:55;;;;;;;39.97;24.70;;;0.60;99.90;;;;;;5072389;28;20110;-58
2022/12/16 01:59:23;;;;;;;39.92;24.45;;;0.70;99.90;;;;;;5072604;28;20049;-61
2022/12/16 02:01:49;;;;;;;38.05;24.83;;;0.70;99.90;;;;;;5072249;28;20044;-61
2022/12/16 02:04:14;;;;;;;41.17;24.65;;;0.70;99.90;;;;;;5072084;28;20376;-58
2022/12/16 02:06:40;;;;;;;38.30;25.30;;;0.60;99.90;;;;;;5072356;28;20040;-60
2022/12/16 02:09:10;;;;;;;40.53;24.40;;;0.70;99.90;;;;;;5072364;28;20051;-62
2022/12/16 02:12:19;;;;;;;41.70;24.52;;;0.70;99.90;;;;;;5072478;28;20390;-61
2022/12/16 02:15:12;;;;;;;34.85;23.50;;;0.70;99.90;;;;;;5053978;28;20115;-61
2022/12/16 02:17:55;;;;;;;40.25;24.25;;;0.80;99.90;;;;;;5070748;28;20051;-60
2022/12/16 02:20:31;;;;;;;38.08;23.80;;;0.70;99.90;;;;;;5072782;28;20040;-57
2022/12/16 02:23:30;;;;;;;39.47;25.08;;;0.60;99.90;;;;;;5072270;28;20120;-60
2022/12/16 02:26:18;;;;;;;43.63;23.03;;;0.50;99.90;;;;;;5027842;28;1246734;-61
2022/12/16 02:28:56;;;;;;;34.05;22.25;;;0.60;99.90;;;;;;5071464;28;20044;-58
2022/12/16 02:31:42;;;;;;;39.80;23.65;;;0.60;99.90;;;;;;5073109;28;20067;-58
2022/12/16 02:34:21;;;;;;;37.97;22.58;;;0.70;99.90;;;;;;5072341;28;20090;-59
2022/12/16 02:36:59;;;;;;;37.65;23.75;;;0.60;99.90;;;;;;5072867;28;20064;-56
2022/12/16 02:39:34;;;;;;;38.22;24.27;;;0.60;99.90;;;;;;5072835;28;20036;-59
2022/12/16 02:42:06;;;;;;;36.60;22.85;;;0.40;99.90;;;;;;5072829;28;20078;-63
2022/12/16 02:44:45;;;;;;;38.58;23.25;;;0.50;99.90;;;;;;5054290;28;20155;-59
2022/12/16 02:47:11;;;;;;;34.88;22.77;;;0.40;99.90;;;;;;5072541;28;20479;-59
2022/12/16 02:49:48;;;;;;;36.70;23.33;;;0.40;99.90;;;;;;5072956;28;20068;-59
2022/12/16 02:52:16;;;;;;;39.60;23.17;;;0.50;99.90;;;;;;5071794;28;20051;-60
2022/12/16 02:54:43;;;;;;;41.75;23.98;;;0.40;99.90;;;;;;5071849;28;20037;-59
2022/12/16 02:57:40;;;;;;;37.65;23.85;;;0.40;99.90;;;;;;5072506;28;20033;-59
2022/12/16 03:00:14;;;;;;;36.15;23.95;;;0.30;99.90;;;;;;5054806;28;20104;-59
2022/12/16 03:02:45;;;;;;;39.70;23.17;;;0.30;99.90;;;;;;5072879;28;20161;-59
2022/12/16 03:05:21;;;;;;;37.08;23.55;;;0.40;99.90;;;;;;5071700;28;20041;-59
2022/12/16 03:07:48;;;;;;;35.47;21.67;;;0.30;99.90;;;;;;5072498;28;20372;-59
2022/12/16 03:10:18;;;;;;;37.80;23.65;;;0.30;99.90;;;;;;5072343;28;20044;-66
2022/12/16 03:12:45;;;;;;;40.65;24.17;;;0.40;99.90;;;;;;5072039;28;20037;-61
2022/12/16 03:15:17;;;;;;;36.17;23.00;;;0.40;99.90;;;;;;5072101;28;20041;-61
2022/12/16 03:17:45;;;;;;;36.35;23.00;;;0.40;99.90;;;;;;5071782;28;20436;-61
2022/12/16 03:20:22;;;;;;;36.30;21.95;;;0.40;99.90;;;;;;5072353;28;20055;-59
2022/12/16 03:22:50;;;;;;;35.22;21.10;;;0.50;99.90;;;;;;5072257;28;20036;-58
2022/12/16 03:25:18;;;;;;;35.42;20.55;;;0.50;99.90;;;;;;5063709;28;20337;-59
2022/12/16 03:27:56;;;;;;;31.65;19.60;;;0.60;99.90;;;;;;5071252;28;20052;-59
2022/12/16 03:30:28;;;;;;;31.65;21.25;;;0.50;99.90;;;;;;5038386;28;20051;-60
2022/12/16 03:33:07;;;;;;;30.20;20.35;;;0.50;99.90;;;;;;5054687;28;20032;-58
2022/12/16 03:35:43;;;;;;;31.55;18.10;;;0.60;99.90;;;;;;5072332;28;20052;-60
2022/12/16 03:38:11;;;;;;;27.90;17.80;;;0.60;99.90;;;;;;5072795;28;20219;-60
2022/12/16 03:40:40;;;;;;;25.58;15.15;;;0.70;99.90;;;;;;5072077;28;20066;-60
2022/12/16 03:43:06;;;;;;;22.58;14.25;;;0.70;99.90;;;;;;5071788;28;20481;-59
2022/12/16 03:45:37;;;;;;;19.90;13.00;;;0.80;99.90;;;;;;5071696;28;20052;-60
2022/12/16 03:48:05;;;;;;;21.77;12.80;;;0.80;99.90;;;;;;5071751;28;20166;-61
2022/12/16 03:50:32;;;;;;;19.13;12.27;;;0.80;99.90;;;;;;5071956;28;20047;-60
2022/12/16 03:52:59;;;;;;;19.58;10.85;;;0.90;99.90;;;;;;5071779;28;20105;-61
2022/12/16 03:55:24;;;;;;;20.80;11.27;;;0.90;99.90;;;;;;5071690;28;20516;-58
2022/12/16 03:57:50;;;;;;;18.73;10.85;;;0.90;99.90;;;;;;5070865;28;20045;-58
2022/12/16 04:00:16;;;;;;;18.35;10.52;;;0.80;99.90;;;;;;5072135;28;20166;-60
2022/12/16 04:02:42;;;;;;;18.73;11.18;;;1.00;99.90;;;;;;5071350;28;20455;-59
2022/12/16 04:05:08;;;;;;;17.30;11.07;;;1.00;99.90;;;;;;5071202;28;20119;-65
2022/12/16 04:07:34;;;;;;;15.65;10.40;;;1.00;99.90;;;;;;5071237;28;20530;-59
2022/12/16 04:09:59;;;;;;;17.25;10.40;;;1.00;99.90;;;;;;5071810;28;20081;-64
2022/12/16 04:26:29;;;;;;;13.50;8.77;;;1.10;99.90;;;;;;5057749;28;20095;-64
2022/12/16 04:28:55;;;;;;;14.05;9.52;;;1.10;99.90;;;;;;5071529;28;20088;-59
2022/12/16 04:31:20;;;;;;;15.27;8.60;;;1.10;99.90;;;;;;5071318;28;20059;-60
